Metar del Interior

METAR SGME 141200Z 05005KT CAVOK 29/25 Q1009=
METAR SGLV 141200Z 05006KT CAVOK 28/24 Q1011=
METAR SGPJ 141200Z 07008KT CAVOK 26/22 Q1015=
METAR SGPC 141200Z 05005KT CAVOK 30/23 Q1010=
METAR SGCO 141200Z 06007KT CAVOK 29/23 Q1012=
METAR SGSP 141200Z 05005KT CAVOK 29/20 Q1009=
METAR SGGR 141200Z NIL=
METAR SGVR 141200Z 36008KT CAVOK 30/24 Q1011=
METAR SGPI 141200Z 14002KT CAVOK 27/20 Q1010=
METAR SGSJ 141200Z 02002KT CAVOK 27/18 Q1004=

TAF

TAF SGAS 120425Z 1206/1306 05008KT CAVOK TX36/1219Z TN24/1209Z 
BECMG 1212/1215 05007KT 9999 SCT027 PROB30 1217/1221 12007KT 9000 -TSRA 
BKN020 FEW040CB BECMG 1222/1301 09010KT 9999 BKN020=

TAF SGES 120425Z 1206/1306 05006KT CAVOK TX33/1219Z TN22/1209Z 
BECMG 1208/1210 05010KT 8000 BKN027 TEMPO 1213/1215 9000 -RA BKN020 
PROB40 1216/1219 12008KT 8000 TSRA BKN015 FEW040CB BECMG 1220/1222 
VRB05KT 9999 BKN027 BECMG 1300/1303 11008KT 9999 SCT027=

TAF SGEN 120425Z 1206/1306 02006KT CAVOK TX34/1219Z TN22/1209Z 
BECMG 1210/1212 07005KT 9999 SCT027 BECMG 1214/1216 09008KT 9999 BKN027 
PROB30 1217/1220 14006KT 8000 -TSRA BKN020 FEW040CB BECMG 1301/1302 13006KT 
9999 BKN020=

TAF SGCO 120425Z 1206/1306 05008KT CAVOK TX35/1219Z TN25/1209Z
BECMG 1212/1215 28010KT 9999 BKN033 FEW040TCU PROB40 1217/1221 15005KT 
8000 TSRA BKN020 FEW040CB BECMG 1300/1303 VRB05KT 9999 BKN027=

La siguiente información es orientativa, no constituyendo documentación de vuelo. Para disponer de la misma se deberá solicitar a la Oficina Vigilancia Meteorológica (OVM) / Oficina ARO/AIS (Aeronautical Report Office/Aeronautical Information Service) del aeródromo de salida. Asimismo la Dirección de Meteorología e Hidrología no se responsabiliza por los perjuicios que pudieran ocasionarse a los "usuarios" y/o a terceros y/o a bienes, debido a las acciones o decisiones adoptadas o dejadas de adoptar en función de la información meteorológica suministrada.